Flight Track Log - Related Links

Times and Time Zones

All times are in EST time to prevent confusion due to time zone crossing. See the LYM1180 flight status page for this flight to view local times or setup timezone preferences in your user account.

Time Position Orientation Groundspeed Altitude Reporting Facility
EST Latitude Longitude Course Direction KTS MPH feet Rate Location/Type
Tue 08:36:49 AM 39.1167 -108.5167 75° East  Level FlightAware Approximate
Tue 08:38:01 AM 39.8167 -104.8167 270° West 190 219 8,900  Level Denver TRACON
Tue 08:38:55 AM 39.8167 -104.8667 252° West 184 212 10,300 1,368 Climbing Denver TRACON
Tue 08:39:55 AM 39.8000 -104.9333 270° West 178 205 11,500 1,000 Climbing Denver TRACON
Tue 08:40:55 AM 39.8000 -105.0000 249° West 183 211 12,300 840 Climbing Denver TRACON
Tue 08:41:35 AM 39.7872 -105.0439 259° West 189 217 12,900 1,140 Climbing Denver Center
Tue 08:42:35 AM 39.7775 -105.1114 257° West 183 211 14,200 1,100 Climbing Denver Center
Tue 08:43:35 AM 39.7658 -105.1767 259° West 188 216 15,100 900 Climbing Denver Center
Tue 08:44:35 AM 39.7561 -105.2417 258° West 193 222 16,000 900 Climbing Denver Center
Tue 08:45:35 AM 39.7442 -105.3119 262° West 193 222 16,900 750 Climbing Denver Center
Tue 08:46:35 AM 39.7367 -105.3822 259° West 200 230 17,500 700 Climbing Denver Center
Tue 08:47:35 AM 39.7267 -105.4500 262° West 205 236 18,300 800 Climbing Denver Center
Tue 08:48:35 AM 39.7192 -105.5231 266° West 195 224 19,100 650 Climbing Denver Center
Tue 08:49:35 AM 39.7156 -105.5958 257° West 195 224 19,600 450 Climbing Denver Center
Tue 08:50:35 AM 39.7033 -105.6664 257° West 202 232 20,000 200 Climbing Denver Center
Tue 08:51:35 AM 39.6894 -105.7447 256° West 208 239 20,000  Level Denver Center
Tue 08:52:35 AM 39.6772 -105.8069 256° West 213 245 20,000  Level Denver Center
Tue 08:53:35 AM 39.6611 -105.8933 255° West 220 253 20,000  Level Denver Center
Tue 08:54:35 AM 39.6428 -105.9797 251° West 232 267 20,000 50 Level Denver Center
Tue 08:55:35 AM 39.6200 -106.0661 260° West 249 287 20,100  Climbing Denver Center
Tue 08:56:35 AM 39.6078 -106.1581 255° West 249 287 20,000 -50 Descending Denver Center
Tue 08:57:35 AM 39.5892 -106.2469 254° West 260 299 20,000  Level Denver Center
Tue 08:58:35 AM 39.5686 -106.3386 253° West 260 299 20,000  Level Denver Center
Tue 08:59:35 AM 39.5478 -106.4275 255° West 260 299 20,000  Level Denver Center
Tue 09:00:35 AM 39.5289 -106.5189 252° West 260 299 20,000  Level Denver Center
Tue 09:01:35 AM 39.5039 -106.6211 255° West 268 308 20,000  Level Denver Center
Tue 09:02:35 AM 39.4850 -106.7125 251° West 268 308 20,000  Level Denver Center
Tue 09:03:35 AM 39.4639 -106.7933 254° West 263 303 20,000  Level Denver Center
Tue 09:04:35 AM 39.4428 -106.8872 256° West 290 334 20,000  Level Denver Center
Tue 09:05:35 AM 39.4236 -106.9867 256° West 281 323 20,000  Level Denver Center
Tue 09:06:35 AM 39.4064 -107.0778 258° West 270 311 20,000 50 Level Denver Center
Tue 09:07:35 AM 39.3914 -107.1717 256° West 270 311 20,100  Climbing Denver Center
Tue 09:08:35 AM 39.3761 -107.2522 257° West 258 297 20,000 -50 Descending Denver Center
Tue 09:09:35 AM 39.3589 -107.3486 255° West 258 297 20,000  Level Denver Center
Tue 09:10:35 AM 39.3392 -107.4425 262° West 266 306 20,000  Level Denver Center
Tue 09:11:35 AM 39.3303 -107.5228 255° West 266 306 20,000  Level Denver Center
Tue 09:12:35 AM 39.3128 -107.6083 253° West 256 295 20,000 -450 Level Denver Center
Tue 09:13:35 AM 39.2931 -107.6939 256° West 235 270 19,100 -1,250 Descending Denver Center
Tue 09:14:35 AM 39.2775 -107.7767 256° West 235 270 17,500 -1,367 Descending Denver Center
Tue 09:16:35 AM 39.2464 -107.9317 253° West 240 276 15,000 -833 Descending Denver Center
Tue 09:17:35 AM 39.2244 -108.0225 253° West 240 276 15,000 -300 Level Denver Center
Tue 09:18:35 AM 39.2044 -108.1078 251° West 245 282 14,400 -900 Descending Denver Center
Tue 09:19:35 AM 39.1847 -108.1822 254° West 245 282 13,200 -950 Descending Denver Center
Tue 09:20:35 AM 39.1667 -108.2647 255° West 240 276 12,500 -900 Descending Denver Center
Tue 09:21:35 AM 39.1486 -108.3528 278° West 240 276 11,400 -1,000 Descending Denver Center
Tue 09:22:35 AM 39.1558 -108.4225 306° West 214 246 10,500 -900 Descending Denver Center
Tue 09:23:35 AM 39.1881 -108.4797 298° West 200 230 9,600 -700 Descending Denver Center
Tue 09:24:35 AM 39.2142 -108.5419 295° West 206 237 9,100 -300 Descending Denver Center
Tue 09:25:35 AM 39.2439 -108.6233 297° West 218 251 9,000 -300 Descending Denver Center
Tue 09:26:35 AM 39.2717 -108.6939 222° Southwest 218 251 8,500 -700 Descending Denver Center
Tue 09:27:35 AM 39.2397 -108.7306 127° Southeast 136 157 7,600 -818 Descending Denver Center
Tue 09:29:09 AM 39.1833 -108.6333 131° Southeast 179 206 6,400 -701 Descending Denver TRACON
Tue 09:30:09 AM 39.1500 -108.5833 131° Southeast 170 196 5,800 -600 Descending Denver TRACON

Login

Don't have an account? Register now (free) for customized features, flight alerts, and more!